sensor_id;sensor_type;location;lat;lon;timestamp;temperature;humidity
64654;DHT22;51065;48.884;12.598;2023-04-24T00:01:23;10.70;99.90
64654;DHT22;51065;48.884;12.598;2023-04-24T00:03:49;10.70;99.90
64654;DHT22;51065;48.884;12.598;2023-04-24T00:06:15;10.70;99.90
64654;DHT22;51065;48.884;12.598;2023-04-24T00:08:42;10.70;99.90
64654;DHT22;51065;48.884;12.598;2023-04-24T00:11:08;10.70;99.90
64654;DHT22;51065;48.884;12.598;2023-04-24T00:13:34;10.70;99.90
64654;DHT22;51065;48.884;12.598;2023-04-24T00:16:00;10.70;99.90
64654;DHT22;51065;48.884;12.598;2023-04-24T00:18:26;10.70;99.90
64654;DHT22;51065;48.884;12.598;2023-04-24T00:20:51;10.70;99.90
64654;DHT22;51065;48.884;12.598;2023-04-24T00:23:17;10.70;99.90
64654;DHT22;51065;48.884;12.598;2023-04-24T00:25:42;10.70;99.90
64654;DHT22;51065;48.884;12.598;2023-04-24T00:28:08;10.60;99.90
64654;DHT22;51065;48.884;12.598;2023-04-24T00:30:34;10.60;99.90
64654;DHT22;51065;48.884;12.598;2023-04-24T00:32:59;10.70;99.90
64654;DHT22;51065;48.884;12.598;2023-04-24T00:35:25;10.60;99.90
64654;DHT22;51065;48.884;12.598;2023-04-24T00:37:50;10.60;99.90
64654;DHT22;51065;48.884;12.598;2023-04-24T00:40:16;10.60;99.90
64654;DHT22;51065;48.884;12.598;2023-04-24T00:42:43;10.60;99.90
64654;DHT22;51065;48.884;12.598;2023-04-24T00:45:09;10.60;99.90
64654;DHT22;51065;48.884;12.598;2023-04-24T00:47:34;10.60;99.90
64654;DHT22;51065;48.884;12.598;2023-04-24T00:50:02;10.60;99.90
64654;DHT22;51065;48.884;12.598;2023-04-24T00:52:28;10.60;99.90
64654;DHT22;51065;48.884;12.598;2023-04-24T00:54:56;10.60;99.90
64654;DHT22;51065;48.884;12.598;2023-04-24T00:57:22;10.60;99.90
64654;DHT22;51065;48.884;12.598;2023-04-24T00:59:49;10.60;99.90
64654;DHT22;51065;48.884;12.598;2023-04-24T01:02:15;10.60;99.90
64654;DHT22;51065;48.884;12.598;2023-04-24T01:04:41;10.60;99.90
64654;DHT22;51065;48.884;12.598;2023-04-24T01:07:08;10.50;99.90
64654;DHT22;51065;48.884;12.598;2023-04-24T01:09:37;10.50;99.90
64654;DHT22;51065;48.884;12.598;2023-04-24T01:12:05;10.60;99.90
64654;DHT22;51065;48.884;12.598;2023-04-24T01:14:31;10.50;99.90
64654;DHT22;51065;48.884;12.598;2023-04-24T01:16:56;10.50;99.90
64654;DHT22;51065;48.884;12.598;2023-04-24T01:19:23;10.50;99.90
64654;DHT22;51065;48.884;12.598;2023-04-24T01:21:51;10.50;99.90
64654;DHT22;51065;48.884;12.598;2023-04-24T01:24:19;10.50;99.90
64654;DHT22;51065;48.884;12.598;2023-04-24T01:26:45;10.50;99.90
64654;DHT22;51065;48.884;12.598;2023-04-24T01:29:11;10.50;99.90
64654;DHT22;51065;48.884;12.598;2023-04-24T01:31:38;10.60;99.90
64654;DHT22;51065;48.884;12.598;2023-04-24T01:34:04;10.60;99.90
64654;DHT22;51065;48.884;12.598;2023-04-24T01:36:30;10.60;99.90
64654;DHT22;51065;48.884;12.598;2023-04-24T01:38:57;10.60;99.90
64654;DHT22;51065;48.884;12.598;2023-04-24T01:41:22;10.60;99.90
64654;DHT22;51065;48.884;12.598;2023-04-24T01:43:49;10.60;99.90
64654;DHT22;51065;48.884;12.598;2023-04-24T01:46:15;10.50;99.90
64654;DHT22;51065;48.884;12.598;2023-04-24T01:48:41;10.50;99.90
64654;DHT22;51065;48.884;12.598;2023-04-24T01:51:07;10.50;99.90
64654;DHT22;51065;48.884;12.598;2023-04-24T01:53:32;10.50;99.90
64654;DHT22;51065;48.884;12.598;2023-04-24T01:55:58;10.50;99.90
64654;DHT22;51065;48.884;12.598;2023-04-24T01:58:23;10.50;99.90
64654;DHT22;51065;48.884;12.598;2023-04-24T02:00:49;10.50;99.90
64654;DHT22;51065;48.884;12.598;2023-04-24T02:03:15;10.50;99.90
64654;DHT22;51065;48.884;12.598;2023-04-24T02:05:43;10.50;99.90
64654;DHT22;51065;48.884;12.598;2023-04-24T02:08:09;10.50;99.90
64654;DHT22;51065;48.884;12.598;2023-04-24T02:10:35;10.60;99.90
64654;DHT22;51065;48.884;12.598;2023-04-24T02:13:01;10.60;99.90
64654;DHT22;51065;48.884;12.598;2023-04-24T02:15:26;10.60;99.90
64654;DHT22;51065;48.884;12.598;2023-04-24T02:17:52;10.50;99.90
64654;DHT22;51065;48.884;12.598;2023-04-24T02:20:17;10.50;99.90
64654;DHT22;51065;48.884;12.598;2023-04-24T02:22:43;10.50;99.90
64654;DHT22;51065;48.884;12.598;2023-04-24T02:25:08;10.50;99.90
64654;DHT22;51065;48.884;12.598;2023-04-24T02:27:34;10.50;99.90
64654;DHT22;51065;48.884;12.598;2023-04-24T02:30:00;10.50;99.90
64654;DHT22;51065;48.884;12.598;2023-04-24T02:32:25;10.50;99.90
64654;DHT22;51065;48.884;12.598;2023-04-24T02:34:51;10.50;99.90
64654;DHT22;51065;48.884;12.598;2023-04-24T02:37:17;10.50;99.90
64654;DHT22;51065;48.884;12.598;2023-04-24T02:39:42;10.50;99.90
64654;DHT22;51065;48.884;12.598;2023-04-24T02:42:08;10.50;99.90
64654;DHT22;51065;48.884;12.598;2023-04-24T02:44:33;10.40;99.90
64654;DHT22;51065;48.884;12.598;2023-04-24T02:46:59;10.40;99.90
64654;DHT22;51065;48.884;12.598;2023-04-24T02:49:24;10.40;99.90
64654;DHT22;51065;48.884;12.598;2023-04-24T02:51:51;10.40;99.90
64654;DHT22;51065;48.884;12.598;2023-04-24T02:54:16;10.40;99.90
64654;DHT22;51065;48.884;12.598;2023-04-24T02:56:42;10.40;99.90
64654;DHT22;51065;48.884;12.598;2023-04-24T02:59:07;10.40;99.90
64654;DHT22;51065;48.884;12.598;2023-04-24T03:01:33;10.30;99.90
64654;DHT22;51065;48.884;12.598;2023-04-24T03:03:58;10.30;99.90
64654;DHT22;51065;48.884;12.598;2023-04-24T03:06:24;10.30;99.90
64654;DHT22;51065;48.884;12.598;2023-04-24T03:08:50;10.30;99.90
64654;DHT22;51065;48.884;12.598;2023-04-24T03:11:15;10.30;99.90
64654;DHT22;51065;48.884;12.598;2023-04-24T03:13:41;10.30;99.90
64654;DHT22;51065;48.884;12.598;2023-04-24T03:16:06;10.20;99.90
64654;DHT22;51065;48.884;12.598;2023-04-24T03:18:32;10.20;99.90
64654;DHT22;51065;48.884;12.598;2023-04-24T03:20:57;10.20;99.90
64654;DHT22;51065;48.884;12.598;2023-04-24T03:23:23;10.20;99.90
64654;DHT22;51065;48.884;12.598;2023-04-24T03:25:48;10.20;99.90
64654;DHT22;51065;48.884;12.598;2023-04-24T03:28:14;10.20;99.90
64654;DHT22;51065;48.884;12.598;2023-04-24T03:30:40;10.20;99.90
64654;DHT22;51065;48.884;12.598;2023-04-24T03:33:05;10.20;99.90
64654;DHT22;51065;48.884;12.598;2023-04-24T03:35:31;10.20;99.90
64654;DHT22;51065;48.884;12.598;2023-04-24T03:37:56;10.20;99.90
64654;DHT22;51065;48.884;12.598;2023-04-24T03:40:22;10.20;99.90
64654;DHT22;51065;48.884;12.598;2023-04-24T03:42:47;10.20;99.90
64654;DHT22;51065;48.884;12.598;2023-04-24T03:45:13;10.20;99.90
64654;DHT22;51065;48.884;12.598;2023-04-24T03:47:39;10.20;99.90
64654;DHT22;51065;48.884;12.598;2023-04-24T03:50:05;10.30;99.90
64654;DHT22;51065;48.884;12.598;2023-04-24T03:52:30;10.20;99.90
64654;DHT22;51065;48.884;12.598;2023-04-24T03:54:56;10.20;99.90
64654;DHT22;51065;48.884;12.598;2023-04-24T03:57:21;10.30;99.90
64654;DHT22;51065;48.884;12.598;2023-04-24T03:59:47;10.30;99.90
64654;DHT22;51065;48.884;12.598;2023-04-24T04:02:13;10.20;99.90
64654;DHT22;51065;48.884;12.598;2023-04-24T04:04:38;10.20;99.90
64654;DHT22;51065;48.884;12.598;2023-04-24T04:07:04;10.20;99.90
64654;DHT22;51065;48.884;12.598;2023-04-24T04:09:30;10.20;99.90
64654;DHT22;51065;48.884;12.598;2023-04-24T04:11:56;10.20;99.90
64654;DHT22;51065;48.884;12.598;2023-04-24T04:14:22;10.20;99.90
64654;DHT22;51065;48.884;12.598;2023-04-24T04:16:48;10.20;99.90
64654;DHT22;51065;48.884;12.598;2023-04-24T04:19:14;10.20;99.90
64654;DHT22;51065;48.884;12.598;2023-04-24T04:21:39;10.20;99.90
64654;DHT22;51065;48.884;12.598;2023-04-24T04:24:05;10.20;99.90
64654;DHT22;51065;48.884;12.598;2023-04-24T04:26:32;10.20;99.90
64654;DHT22;51065;48.884;12.598;2023-04-24T04:28:59;10.20;99.90
64654;DHT22;51065;48.884;12.598;2023-04-24T04:31:26;10.10;99.90
64654;DHT22;51065;48.884;12.598;2023-04-24T04:33:51;10.10;99.90
64654;DHT22;51065;48.884;12.598;2023-04-24T04:36:17;10.20;99.90
64654;DHT22;51065;48.884;12.598;2023-04-24T04:38:43;10.10;99.90
64654;DHT22;51065;48.884;12.598;2023-04-24T04:41:10;10.10;99.90
64654;DHT22;51065;48.884;12.598;2023-04-24T04:43:36;10.10;99.90
64654;DHT22;51065;48.884;12.598;2023-04-24T04:46:01;10.10;99.90
64654;DHT22;51065;48.884;12.598;2023-04-24T04:48:28;10.10;99.90
64654;DHT22;51065;48.884;12.598;2023-04-24T04:50:54;10.10;99.90
64654;DHT22;51065;48.884;12.598;2023-04-24T04:53:20;10.10;99.90
64654;DHT22;51065;48.884;12.598;2023-04-24T04:55:45;10.10;99.90
64654;DHT22;51065;48.884;12.598;2023-04-24T04:58:12;10.10;99.90
64654;DHT22;51065;48.884;12.598;2023-04-24T05:00:37;10.10;99.90
64654;DHT22;51065;48.884;12.598;2023-04-24T05:03:03;10.10;99.90
64654;DHT22;51065;48.884;12.598;2023-04-24T05:05:29;10.10;99.90
64654;DHT22;51065;48.884;12.598;2023-04-24T05:07:54;10.10;99.90
64654;DHT22;51065;48.884;12.598;2023-04-24T05:10:20;10.20;99.90
64654;DHT22;51065;48.884;12.598;2023-04-24T05:12:45;10.20;99.90
64654;DHT22;51065;48.884;12.598;2023-04-24T05:15:11;10.10;99.90
64654;DHT22;51065;48.884;12.598;2023-04-24T05:17:36;10.20;99.90
64654;DHT22;51065;48.884;12.598;2023-04-24T05:20:03;10.20;99.90
64654;DHT22;51065;48.884;12.598;2023-04-24T05:22:31;10.20;99.90
64654;DHT22;51065;48.884;12.598;2023-04-24T05:24:56;10.20;99.90
64654;DHT22;51065;48.884;12.598;2023-04-24T05:27:22;10.10;99.90
64654;DHT22;51065;48.884;12.598;2023-04-24T05:29:48;10.20;99.90
64654;DHT22;51065;48.884;12.598;2023-04-24T05:32:13;10.20;99.90
64654;DHT22;51065;48.884;12.598;2023-04-24T05:34:39;10.20;99.90
64654;DHT22;51065;48.884;12.598;2023-04-24T05:37:05;10.20;99.90
64654;DHT22;51065;48.884;12.598;2023-04-24T05:39:34;10.20;99.90
64654;DHT22;51065;48.884;12.598;2023-04-24T05:42:00;10.20;99.90
64654;DHT22;51065;48.884;12.598;2023-04-24T05:44:27;10.20;99.90
64654;DHT22;51065;48.884;12.598;2023-04-24T05:46:53;10.30;99.90
64654;DHT22;51065;48.884;12.598;2023-04-24T05:49:18;10.40;99.90
64654;DHT22;51065;48.884;12.598;2023-04-24T05:51:44;10.40;99.90
64654;DHT22;51065;48.884;12.598;2023-04-24T05:54:10;10.40;99.90
64654;DHT22;51065;48.884;12.598;2023-04-24T05:56:37;10.40;99.90
64654;DHT22;51065;48.884;12.598;2023-04-24T05:59:03;10.40;99.90
64654;DHT22;51065;48.884;12.598;2023-04-24T06:01:29;10.40;99.90
64654;DHT22;51065;48.884;12.598;2023-04-24T06:03:54;10.50;99.90
64654;DHT22;51065;48.884;12.598;2023-04-24T06:06:20;10.60;99.90
64654;DHT22;51065;48.884;12.598;2023-04-24T06:08:46;10.60;99.90
64654;DHT22;51065;48.884;12.598;2023-04-24T06:11:11;10.70;99.90
64654;DHT22;51065;48.884;12.598;2023-04-24T06:13:37;10.80;99.90
64654;DHT22;51065;48.884;12.598;2023-04-24T06:16:02;10.80;99.90
64654;DHT22;51065;48.884;12.598;2023-04-24T06:18:28;10.90;99.90
64654;DHT22;51065;48.884;12.598;2023-04-24T06:20:53;10.90;99.90
64654;DHT22;51065;48.884;12.598;2023-04-24T06:23:20;10.90;99.90
64654;DHT22;51065;48.884;12.598;2023-04-24T06:25:46;10.90;99.90
64654;DHT22;51065;48.884;12.598;2023-04-24T06:28:11;11.00;99.90
64654;DHT22;51065;48.884;12.598;2023-04-24T06:30:37;11.00;99.90
64654;DHT22;51065;48.884;12.598;2023-04-24T06:33:02;11.00;99.90
64654;DHT22;51065;48.884;12.598;2023-04-24T06:35:28;11.00;99.90
64654;DHT22;51065;48.884;12.598;2023-04-24T06:37:54;11.00;99.90
64654;DHT22;51065;48.884;12.598;2023-04-24T06:40:21;11.00;99.90
64654;DHT22;51065;48.884;12.598;2023-04-24T06:42:47;11.00;99.90
64654;DHT22;51065;48.884;12.598;2023-04-24T06:45:12;11.00;99.90
64654;DHT22;51065;48.884;12.598;2023-04-24T06:47:38;11.00;99.90
64654;DHT22;51065;48.884;12.598;2023-04-24T06:50:04;11.00;99.90
64654;DHT22;51065;48.884;12.598;2023-04-24T06:52:29;11.00;99.90
64654;DHT22;51065;48.884;12.598;2023-04-24T06:55:04;11.00;99.90
64654;DHT22;51065;48.884;12.598;2023-04-24T06:57:30;11.00;99.90
64654;DHT22;51065;48.884;12.598;2023-04-24T06:59:56;11.00;99.90
64654;DHT22;51065;48.884;12.598;2023-04-24T07:02:22;11.00;99.90
64654;DHT22;51065;48.884;12.598;2023-04-24T07:04:47;10.90;99.90
64654;DHT22;51065;48.884;12.598;2023-04-24T07:07:13;11.00;99.90
64654;DHT22;51065;48.884;12.598;2023-04-24T07:09:40;11.10;99.90
64654;DHT22;51065;48.884;12.598;2023-04-24T07:12:08;11.10;99.90
64654;DHT22;51065;48.884;12.598;2023-04-24T07:14:36;11.10;99.90
64654;DHT22;51065;48.884;12.598;2023-04-24T07:17:03;11.20;99.90
64654;DHT22;51065;48.884;12.598;2023-04-24T07:19:28;11.20;99.90
64654;DHT22;51065;48.884;12.598;2023-04-24T07:21:54;11.30;99.90
64654;DHT22;51065;48.884;12.598;2023-04-24T07:24:20;11.30;99.90
64654;DHT22;51065;48.884;12.598;2023-04-24T07:26:46;11.40;99.90
64654;DHT22;51065;48.884;12.598;2023-04-24T07:29:12;11.50;99.90
64654;DHT22;51065;48.884;12.598;2023-04-24T07:31:38;11.60;99.90
64654;DHT22;51065;48.884;12.598;2023-04-24T07:34:04;11.80;99.90
64654;DHT22;51065;48.884;12.598;2023-04-24T07:36:29;12.00;99.90
64654;DHT22;51065;48.884;12.598;2023-04-24T07:38:55;12.20;99.90
64654;DHT22;51065;48.884;12.598;2023-04-24T07:41:22;12.40;99.90
64654;DHT22;51065;48.884;12.598;2023-04-24T07:43:48;12.50;99.90
64654;DHT22;51065;48.884;12.598;2023-04-24T07:46:13;12.60;99.90
64654;DHT22;51065;48.884;12.598;2023-04-24T07:48:39;12.70;99.90
64654;DHT22;51065;48.884;12.598;2023-04-24T07:51:04;12.70;99.90
64654;DHT22;51065;48.884;12.598;2023-04-24T07:53:30;12.70;99.90
64654;DHT22;51065;48.884;12.598;2023-04-24T07:55:56;12.70;99.90
64654;DHT22;51065;48.884;12.598;2023-04-24T07:58:21;12.80;99.90
64654;DHT22;51065;48.884;12.598;2023-04-24T08:00:47;12.80;99.90
64654;DHT22;51065;48.884;12.598;2023-04-24T08:03:12;12.80;99.90
64654;DHT22;51065;48.884;12.598;2023-04-24T08:05:38;12.90;99.90
64654;DHT22;51065;48.884;12.598;2023-04-24T08:08:04;13.10;99.90
64654;DHT22;51065;48.884;12.598;2023-04-24T08:10:29;13.40;99.90
64654;DHT22;51065;48.884;12.598;2023-04-24T08:12:55;13.50;99.90
64654;DHT22;51065;48.884;12.598;2023-04-24T08:15:21;13.60;99.90
64654;DHT22;51065;48.884;12.598;2023-04-24T08:17:47;13.60;99.90
64654;DHT22;51065;48.884;12.598;2023-04-24T08:20:12;13.40;99.90
64654;DHT22;51065;48.884;12.598;2023-04-24T08:22:42;13.50;99.90
64654;DHT22;51065;48.884;12.598;2023-04-24T08:25:10;13.60;99.90
64654;DHT22;51065;48.884;12.598;2023-04-24T08:27:36;13.30;99.90
64654;DHT22;51065;48.884;12.598;2023-04-24T08:30:03;13.20;99.90
64654;DHT22;51065;48.884;12.598;2023-04-24T08:32:28;13.20;99.90
64654;DHT22;51065;48.884;12.598;2023-04-24T08:34:55;13.00;99.90
64654;DHT22;51065;48.884;12.598;2023-04-24T08:37:25;12.90;99.90
64654;DHT22;51065;48.884;12.598;2023-04-24T08:39:51;12.70;99.90
64654;DHT22;51065;48.884;12.598;2023-04-24T08:42:17;12.70;99.90
64654;DHT22;51065;48.884;12.598;2023-04-24T08:44:43;12.70;99.90
64654;DHT22;51065;48.884;12.598;2023-04-24T08:47:10;12.80;99.90
64654;DHT22;51065;48.884;12.598;2023-04-24T08:49:37;12.90;99.90
64654;DHT22;51065;48.884;12.598;2023-04-24T08:52:04;12.70;99.90
64654;DHT22;51065;48.884;12.598;2023-04-24T08:54:31;12.40;99.90
64654;DHT22;51065;48.884;12.598;2023-04-24T08:57:01;12.30;99.90
64654;DHT22;51065;48.884;12.598;2023-04-24T08:59:29;12.20;99.90
64654;DHT22;51065;48.884;12.598;2023-04-24T09:01:56;12.30;99.90
64654;DHT22;51065;48.884;12.598;2023-04-24T09:04:22;12.40;99.90
64654;DHT22;51065;48.884;12.598;2023-04-24T09:06:56;12.70;99.90
64654;DHT22;51065;48.884;12.598;2023-04-24T09:09:23;13.20;99.90
64654;DHT22;51065;48.884;12.598;2023-04-24T09:11:52;14.00;99.90
64654;DHT22;51065;48.884;12.598;2023-04-24T09:14:21;14.50;99.90
64654;DHT22;51065;48.884;12.598;2023-04-24T09:16:47;14.90;99.90
64654;DHT22;51065;48.884;12.598;2023-04-24T09:19:13;15.20;99.90
64654;DHT22;51065;48.884;12.598;2023-04-24T09:21:39;15.40;99.90
64654;DHT22;51065;48.884;12.598;2023-04-24T09:24:14;15.90;99.90
64654;DHT22;51065;48.884;12.598;2023-04-24T09:26:40;16.30;99.90
64654;DHT22;51065;48.884;12.598;2023-04-24T09:29:05;16.50;99.90
64654;DHT22;51065;48.884;12.598;2023-04-24T09:31:31;15.70;99.90
64654;DHT22;51065;48.884;12.598;2023-04-24T09:34:01;14.10;91.40
64654;DHT22;51065;48.884;12.598;2023-04-24T09:36:29;12.80;98.30
64654;DHT22;51065;48.884;12.598;2023-04-24T09:38:59;12.00;99.90
64654;DHT22;51065;48.884;12.598;2023-04-24T09:41:25;11.70;99.90
64654;DHT22;51065;48.884;12.598;2023-04-24T09:43:53;11.40;99.90
64654;DHT22;51065;48.884;12.598;2023-04-24T09:46:19;11.40;99.90
64654;DHT22;51065;48.884;12.598;2023-04-24T09:48:46;11.50;99.90
64654;DHT22;51065;48.884;12.598;2023-04-24T09:51:12;11.60;99.90
64654;DHT22;51065;48.884;12.598;2023-04-24T09:53:38;11.80;99.90
64654;DHT22;51065;48.884;12.598;2023-04-24T09:56:09;12.10;99.90
64654;DHT22;51065;48.884;12.598;2023-04-24T09:58:36;12.50;99.90
64654;DHT22;51065;48.884;12.598;2023-04-24T10:01:02;13.20;99.90
64654;DHT22;51065;48.884;12.598;2023-04-24T10:03:30;13.60;99.90
64654;DHT22;51065;48.884;12.598;2023-04-24T10:06:02;13.80;98.70
64654;DHT22;51065;48.884;12.598;2023-04-24T10:08:33;13.20;99.90
64654;DHT22;51065;48.884;12.598;2023-04-24T10:10:59;13.10;99.90
64654;DHT22;51065;48.884;12.598;2023-04-24T10:13:26;13.20;99.90
64654;DHT22;51065;48.884;12.598;2023-04-24T10:15:51;13.80;99.90
64654;DHT22;51065;48.884;12.598;2023-04-24T10:18:17;14.80;99.90
64654;DHT22;51065;48.884;12.598;2023-04-24T10:20:44;15.70;93.00
64654;DHT22;51065;48.884;12.598;2023-04-24T10:23:10;16.70;90.10
64654;DHT22;51065;48.884;12.598;2023-04-24T10:25:37;17.50;90.10
64654;DHT22;51065;48.884;12.598;2023-04-24T10:28:03;18.20;75.90
64654;DHT22;51065;48.884;12.598;2023-04-24T10:30:31;17.80;70.40
64654;DHT22;51065;48.884;12.598;2023-04-24T10:33:04;17.20;73.40
64654;DHT22;51065;48.884;12.598;2023-04-24T10:35:36;17.10;73.30
64654;DHT22;51065;48.884;12.598;2023-04-24T10:38:09;15.90;69.00
64654;DHT22;51065;48.884;12.598;2023-04-24T10:40:37;15.60;77.00
64654;DHT22;51065;48.884;12.598;2023-04-24T10:43:04;15.50;79.20
64654;DHT22;51065;48.884;12.598;2023-04-24T10:45:34;15.10;90.00
64654;DHT22;51065;48.884;12.598;2023-04-24T10:48:04;15.30;72.50
64654;DHT22;51065;48.884;12.598;2023-04-24T10:53:13;15.80;74.40
64654;DHT22;51065;48.884;12.598;2023-04-24T10:55:42;16.10;78.70
64654;DHT22;51065;48.884;12.598;2023-04-24T10:58:08;16.50;72.60
64654;DHT22;51065;48.884;12.598;2023-04-24T11:00:37;17.20;73.90
64654;DHT22;51065;48.884;12.598;2023-04-24T11:03:27;17.10;65.80
64654;DHT22;51065;48.884;12.598;2023-04-24T11:05:59;16.70;76.60
64654;DHT22;51065;48.884;12.598;2023-04-24T11:11:19;17.00;73.80
64654;DHT22;51065;48.884;12.598;2023-04-24T11:19:18;16.50;71.30
64654;DHT22;51065;48.884;12.598;2023-04-24T11:29:49;17.00;64.60
64654;DHT22;51065;48.884;12.598;2023-04-24T11:32:23;16.70;61.80
64654;DHT22;51065;48.884;12.598;2023-04-24T11:34:50;16.10;62.30
64654;DHT22;51065;48.884;12.598;2023-04-24T11:37:16;16.30;63.80
64654;DHT22;51065;48.884;12.598;2023-04-24T11:39:42;16.40;63.10
64654;DHT22;51065;48.884;12.598;2023-04-24T11:42:08;16.70;62.60
64654;DHT22;51065;48.884;12.598;2023-04-24T11:44:35;16.80;62.70
64654;DHT22;51065;48.884;12.598;2023-04-24T11:47:04;16.80;65.70
64654;DHT22;51065;48.884;12.598;2023-04-24T11:49:29;17.20;59.10
64654;DHT22;51065;48.884;12.598;2023-04-24T11:51:55;17.40;57.80
64654;DHT22;51065;48.884;12.598;2023-04-24T11:54:21;17.60;59.40
64654;DHT22;51065;48.884;12.598;2023-04-24T11:56:47;18.30;59.40
64654;DHT22;51065;48.884;12.598;2023-04-24T11:59:14;18.10;53.90
64654;DHT22;51065;48.884;12.598;2023-04-24T12:01:44;17.10;54.30
64654;DHT22;51065;48.884;12.598;2023-04-24T12:04:11;16.70;58.40
64654;DHT22;51065;48.884;12.598;2023-04-24T12:06:36;16.20;60.60
64654;DHT22;51065;48.884;12.598;2023-04-24T12:09:02;15.80;59.80
64654;DHT22;51065;48.884;12.598;2023-04-24T12:11:27;15.30;66.00
64654;DHT22;51065;48.884;12.598;2023-04-24T12:13:54;14.80;71.80
64654;DHT22;51065;48.884;12.598;2023-04-24T12:16:20;13.70;92.70
64654;DHT22;51065;48.884;12.598;2023-04-24T12:18:46;12.90;99.90
64654;DHT22;51065;48.884;12.598;2023-04-24T12:21:19;12.20;99.90
64654;DHT22;51065;48.884;12.598;2023-04-24T12:23:45;11.70;99.90
64654;DHT22;51065;48.884;12.598;2023-04-24T12:26:20;11.10;99.90
64654;DHT22;51065;48.884;12.598;2023-04-24T12:28:48;10.70;99.90
64654;DHT22;51065;48.884;12.598;2023-04-24T12:31:15;10.50;99.90
64654;DHT22;51065;48.884;12.598;2023-04-24T12:33:41;10.40;99.90
64654;DHT22;51065;48.884;12.598;2023-04-24T12:36:10;10.60;99.90
64654;DHT22;51065;48.884;12.598;2023-04-24T12:38:37;10.70;99.90
64654;DHT22;51065;48.884;12.598;2023-04-24T12:41:07;10.90;99.90
64654;DHT22;51065;48.884;12.598;2023-04-24T12:43:33;11.30;99.90
64654;DHT22;51065;48.884;12.598;2023-04-24T12:45:59;11.60;99.90
64654;DHT22;51065;48.884;12.598;2023-04-24T12:48:26;11.80;99.90
64654;DHT22;51065;48.884;12.598;2023-04-24T12:50:51;12.00;99.90
64654;DHT22;51065;48.884;12.598;2023-04-24T12:53:17;12.30;99.90
64654;DHT22;51065;48.884;12.598;2023-04-24T12:55:43;12.90;99.90
64654;DHT22;51065;48.884;12.598;2023-04-24T12:58:10;13.60;99.90
64654;DHT22;51065;48.884;12.598;2023-04-24T13:00:35;14.50;99.90
64654;DHT22;51065;48.884;12.598;2023-04-24T13:03:01;14.90;99.90
64654;DHT22;51065;48.884;12.598;2023-04-24T13:05:27;15.60;99.90
64654;DHT22;51065;48.884;12.598;2023-04-24T13:07:52;16.00;97.50
64654;DHT22;51065;48.884;12.598;2023-04-24T13:10:18;16.30;97.90
64654;DHT22;51065;48.884;12.598;2023-04-24T13:12:44;16.60;96.00
64654;DHT22;51065;48.884;12.598;2023-04-24T13:15:11;16.90;86.50
64654;DHT22;51065;48.884;12.598;2023-04-24T13:17:37;16.80;90.30
64654;DHT22;51065;48.884;12.598;2023-04-24T13:20:03;15.90;84.70
64654;DHT22;51065;48.884;12.598;2023-04-24T13:22:29;15.40;93.20
64654;DHT22;51065;48.884;12.598;2023-04-24T13:24:54;15.10;92.10
64654;DHT22;51065;48.884;12.598;2023-04-24T13:27:21;15.60;94.70
64654;DHT22;51065;48.884;12.598;2023-04-24T13:29:47;16.00;93.70
64654;DHT22;51065;48.884;12.598;2023-04-24T13:32:12;15.80;92.00
64654;DHT22;51065;48.884;12.598;2023-04-24T13:34:38;15.40;93.40
64654;DHT22;51065;48.884;12.598;2023-04-24T13:37:04;15.10;94.20
64654;DHT22;51065;48.884;12.598;2023-04-24T13:39:30;14.80;96.00
64654;DHT22;51065;48.884;12.598;2023-04-24T13:41:57;14.50;97.80
64654;DHT22;51065;48.884;12.598;2023-04-24T13:44:23;14.20;94.40
64654;DHT22;51065;48.884;12.598;2023-04-24T13:46:51;14.20;97.90
64654;DHT22;51065;48.884;12.598;2023-04-24T13:49:19;14.20;93.00
64654;DHT22;51065;48.884;12.598;2023-04-24T13:51:45;14.00;95.10
64654;DHT22;51065;48.884;12.598;2023-04-24T13:54:11;13.90;95.40
64654;DHT22;51065;48.884;12.598;2023-04-24T13:56:37;13.80;90.40
64654;DHT22;51065;48.884;12.598;2023-04-24T13:59:02;13.60;91.60
64654;DHT22;51065;48.884;12.598;2023-04-24T14:01:28;13.50;93.40
64654;DHT22;51065;48.884;12.598;2023-04-24T14:03:54;13.50;93.70
64654;DHT22;51065;48.884;12.598;2023-04-24T14:06:20;13.50;91.50
64654;DHT22;51065;48.884;12.598;2023-04-24T14:08:47;13.60;76.80
64654;DHT22;51065;48.884;12.598;2023-04-24T14:11:13;13.80;70.50
64654;DHT22;51065;48.884;12.598;2023-04-24T14:13:40;14.10;70.90
64654;DHT22;51065;48.884;12.598;2023-04-24T14:16:06;14.30;72.60
64654;DHT22;51065;48.884;12.598;2023-04-24T14:18:32;14.50;69.00
64654;DHT22;51065;48.884;12.598;2023-04-24T14:20:57;14.60;62.40
64654;DHT22;51065;48.884;12.598;2023-04-24T14:23:23;15.00;64.20
64654;DHT22;51065;48.884;12.598;2023-04-24T14:25:49;15.30;60.40
64654;DHT22;51065;48.884;12.598;2023-04-24T14:28:17;15.70;57.70
64654;DHT22;51065;48.884;12.598;2023-04-24T14:30:44;15.70;56.70
64654;DHT22;51065;48.884;12.598;2023-04-24T14:33:09;15.60;57.10
64654;DHT22;51065;48.884;12.598;2023-04-24T14:35:36;15.30;58.80
64654;DHT22;51065;48.884;12.598;2023-04-24T14:38:01;15.10;61.50
64654;DHT22;51065;48.884;12.598;2023-04-24T14:40:27;15.00;59.20
64654;DHT22;51065;48.884;12.598;2023-04-24T14:42:53;14.40;59.70
64654;DHT22;51065;48.884;12.598;2023-04-24T14:45:19;14.20;60.50
64654;DHT22;51065;48.884;12.598;2023-04-24T14:47:45;14.00;60.30
64654;DHT22;51065;48.884;12.598;2023-04-24T14:50:10;13.90;61.60
64654;DHT22;51065;48.884;12.598;2023-04-24T14:52:37;13.90;62.40
64654;DHT22;51065;48.884;12.598;2023-04-24T14:55:03;13.90;61.00
64654;DHT22;51065;48.884;12.598;2023-04-24T14:57:29;13.90;60.00
64654;DHT22;51065;48.884;12.598;2023-04-24T14:59:55;14.10;62.20
64654;DHT22;51065;48.884;12.598;2023-04-24T15:02:21;14.20;64.90
64654;DHT22;51065;48.884;12.598;2023-04-24T15:04:46;14.60;57.60
64654;DHT22;51065;48.884;12.598;2023-04-24T15:07:12;14.70;58.00
64654;DHT22;51065;48.884;12.598;2023-04-24T15:09:37;14.70;59.40
64654;DHT22;51065;48.884;12.598;2023-04-24T15:12:03;14.60;58.30
64654;DHT22;51065;48.884;12.598;2023-04-24T15:14:29;14.70;57.50
64654;DHT22;51065;48.884;12.598;2023-04-24T15:16:55;14.60;60.40
64654;DHT22;51065;48.884;12.598;2023-04-24T15:19:20;14.60;60.60
64654;DHT22;51065;48.884;12.598;2023-04-24T15:21:46;14.30;61.90
64654;DHT22;51065;48.884;12.598;2023-04-24T15:24:12;14.20;65.40
64654;DHT22;51065;48.884;12.598;2023-04-24T15:26:37;14.10;64.40
64654;DHT22;51065;48.884;12.598;2023-04-24T15:29:03;14.10;62.20